Almeria, NE

11:49 PM CDT on September 22, 2014 (GMT -0500)
Sharp | Change Station
CLOSE
Current Station
Airport
Location: Ord,
Elevation: 2070 ft
Nearby Weather Stations

Elev 2070 ft 41.62 °N, 98.95 °W | Updated 56 minutes ago

Overcast
Overcast
59 °F
Feels Like 59 °F
N
8
Wind Variable Wind from SSE

Today
High -- | Low -- °F
--% Chance of Precip.
Yesterday
High -- | Low -- °F
Precip. -- in
7:25 AM 7:34 PM
Waning Crescent, 1% visible
Pressure 30.11 in
Visibility 10.0 miles
Clouds Few 6500 ft
Overcast 11000 ft
Dew Point 55 °F
Humidity 87%
Rainfall 0.12 in
Snow Depth Not available.
UV 0 out of 12
Pollen 5.40 out of 12
Air Quality Not available.
Flu Activity Not available.
METAR KODX 230353Z AUTO 16007KT 10SM FEW065 OVC110 15/13 A3012 RMK AO2 RAE30 SLP196 P0003 T01500128

More Conditions Fewer Conditions

Pressure 30.11 in
Visibility 10.0 miles
Clouds Few 6500 ft
Overcast 11000 ft
Dew Point 55 °F
Humidity 87%
Rainfall 0.12 in
Snow Depth Not available.
UV 0 out of 12
Pollen 5.40 out of 12
Air Quality Not available.
Flu Activity Not available.
METAR KODX 230353Z AUTO 16007KT 10SM FEW065 OVC110 15/13 A3012 RMK AO2 RAE30 SLP196 P0003 T01500128

More Conditions Fewer Conditions

10-Day Weather Forecast

Almanac

Astronomy

Sep. 22, 2014 Rise Set
Actual Time 7:25 AM CDT 7:34 PM CDT
Civil Twilight 6:57 AM CDT 8:02 PM CDT
Nautical Twilight 6:24 AM CDT 8:35 PM CDT
Astronomical Twilight 5:51 AM CDT 9:08 PM CDT
Moon 5:54 AM CDT (9/22) 6:43 PM CDT (9/22)
Length of Visible Light 13h 05m
Length of Day
12h 09m
Tomorrow will be 2m 47s shorter.
Waning Crescent, 1% of the Moon is Illuminated
Sep 23
Waning Crescent
Sep 24
New
Oct 1
First Quarter
Oct 8
Full
Oct 15
Last Quarter

Yesterday's Extremes

State Highs State Lows

Community

WunderPhotos

Upload Photos

1,755,611 photos uploaded!

Nearby

Snow Depth

Station Depth Elevation
No new snow has been reported.

Earthquake Activity

City Distance Mag. Time & Date
No recent earthquake activity has been reported nearby.
Minimum magnitude displayed is 2.5.

Coastal Water Temperatures

Place Temperature
No Stations Reporting

Nearby Weather Stations